KOXD/OXD METAR and TAF weather

Enter ICAO airport designator
Station Type Date Time Source
KOXD METAR 2019/02/17 16:16 UTC NOAA

KOXD 171616Z AUTO 10009KT 10SM OVC016 M01/M04 A2980 RMK AO2 T10071044


Station Type Date Time Source
KOXD Decoded METAR 2019/02/17 16:16 UTC NOAA

Station name not available
Feb 17, 2019 - 11:16 AM EST / 2019.02.17 1616 UTC
Wind: from the E (100 degrees) at 10 MPH (9 KT):0
Visibility: 10 mile(s):0
Sky conditions: overcast
Temperature: 30.7 F (-0.7 C)
Windchill: 23 F (-5 C):1
Dew Point: 24.1 F (-4.4 C)
Relative Humidity: 75%
Pressure (altimeter): 29.8 in. Hg (1009 hPa)
ob: KOXD 171616Z AUTO 10009KT 10SM OVC016 M01/M04 A2980 RMK AO2 T10071044
cycle: 16

Station Type Date Time Source
KOXD TAF UTC NOAA

Error!


Example: see airport list